createdAt,value
2023-03-29T00:01:10.208Z,77.45
2023-03-29T00:03:39.758Z,77.88
2023-03-29T00:06:10.304Z,77.79
2023-03-29T00:08:39.105Z,77.98
2023-03-29T00:11:07.717Z,77.92
2023-03-29T00:13:36.664Z,77.45
2023-03-29T00:16:05.404Z,77.52
2023-03-29T00:18:33.971Z,76.95
2023-03-29T00:21:03.474Z,76.57
2023-03-29T00:23:33.719Z,76.77
2023-03-29T00:26:02.175Z,76.52
2023-03-29T00:28:32.529Z,77.04
2023-03-29T00:31:12.121Z,76.61
2023-03-29T00:33:41.837Z,76.17
2023-03-29T00:36:11.145Z,76.53
2023-03-29T00:38:41.376Z,75.83
2023-03-29T00:41:10.709Z,76.01
2023-03-29T00:43:53.390Z,75.61
2023-03-29T00:46:21.981Z,75.45
2023-03-29T00:48:52.225Z,75.29
2023-03-29T00:51:22.791Z,75.67
2023-03-29T00:53:57.146Z,75.16
2023-03-29T00:56:30.035Z,75.53
2023-03-29T00:59:02.283Z,75.27
2023-03-29T01:01:35.182Z,75.16
2023-03-29T01:04:06.790Z,75.03
2023-03-29T01:06:36.539Z,75.30
2023-03-29T01:09:09.412Z,74.73
2023-03-29T01:11:40.804Z,74.60
2023-03-29T01:14:15.454Z,74.46
2023-03-29T01:16:48.004Z,75.01
2023-03-29T01:19:21.500Z,74.48
2023-03-29T01:21:52.940Z,74.72
2023-03-29T01:24:42.202Z,74.04
2023-03-29T01:27:15.695Z,74.38
2023-03-29T01:29:47.758Z,74.05
2023-03-29T01:32:22.458Z,74.30
2023-03-29T01:34:54.460Z,74.84
2023-03-29T01:37:26.752Z,74.53
2023-03-29T01:39:55.813Z,75.41
2023-03-29T01:42:32.961Z,75.23
2023-03-29T01:45:09.094Z,75.30
2023-03-29T01:47:43.883Z,74.97
2023-03-29T01:50:15.686Z,75.08
2023-03-29T01:52:49.378Z,74.92
2023-03-29T01:55:20.397Z,74.99
2023-03-29T01:57:49.802Z,75.79
2023-03-29T02:00:24.929Z,75.63
2023-03-29T02:02:57.168Z,74.87
2023-03-29T02:05:28.575Z,74.60
2023-03-29T02:08:01.003Z,74.89
2023-03-29T02:10:29.991Z,74.42
2023-03-29T02:12:58.691Z,75.01
2023-03-29T02:15:28.898Z,74.30
2023-03-29T02:17:58.140Z,74.87
2023-03-29T02:20:29.393Z,74.11
2023-03-29T02:23:03.474Z,74.69
2023-03-29T02:25:32.618Z,74.53
2023-03-29T02:28:01.614Z,75.08
2023-03-29T02:30:39.376Z,75.14
2023-03-29T02:33:11.896Z,75.30
2023-03-29T02:35:43.399Z,74.73
2023-03-29T02:38:12.591Z,75.42
2023-03-29T02:40:43.105Z,74.58
2023-03-29T02:43:12.756Z,75.13
2023-03-29T02:45:43.390Z,75.52
2023-03-29T02:48:15.088Z,75.07
2023-03-29T02:50:44.588Z,75.02
2023-03-29T02:53:16.495Z,75.23
2023-03-29T02:55:47.005Z,75.77
2023-03-29T02:58:15.892Z,75.47
2023-03-29T03:00:47.959Z,75.46
2023-03-29T03:03:17.126Z,75.42
2023-03-29T03:05:49.367Z,75.29
2023-03-29T03:08:19.845Z,75.58
2023-03-29T03:10:49.403Z,75.00
2023-03-29T03:13:18.533Z,74.87
2023-03-29T03:15:49.489Z,75.13
2023-03-29T03:18:18.453Z,75.93
2023-03-29T03:20:56.346Z,74.91
2023-03-29T03:23:25.390Z,74.47
2023-03-29T03:25:54.122Z,75.07
2023-03-29T03:28:24.354Z,74.64
2023-03-29T03:30:57.674Z,74.95
2023-03-29T03:33:50.605Z,74.26
2023-03-29T03:36:37.107Z,74.50
2023-03-29T03:39:07.533Z,73.65
2023-03-29T03:41:36.567Z,73.92
2023-03-29T03:44:05.348Z,73.70
2023-03-29T03:46:35.385Z,73.15
2023-03-29T03:49:06.317Z,73.82
2023-03-29T03:51:39.700Z,73.52
2023-03-29T03:54:08.626Z,73.53
2023-03-29T03:56:37.453Z,73.37
2023-03-29T03:59:07.238Z,73.81
2023-03-29T04:01:45.709Z,73.25
2023-03-29T04:04:20.846Z,73.65
2023-03-29T04:07:09.879Z,73.04
2023-03-29T04:10:01.811Z,73.04
2023-03-29T04:12:33.318Z,73.27
2023-03-29T04:15:02.360Z,72.81
2023-03-29T04:17:34.286Z,72.48
2023-03-29T04:20:12.778Z,72.65
2023-03-29T04:22:42.622Z,72.42
2023-03-29T04:25:15.076Z,71.64
2023-03-29T04:27:50.246Z,71.81
2023-03-29T04:30:44.653Z,71.71
2023-03-29T04:33:18.874Z,71.57
2023-03-29T04:35:57.395Z,71.33
2023-03-29T04:38:26.829Z,71.63
2023-03-29T04:40:56.978Z,71.35
2023-03-29T04:43:48.388Z,71.02
2023-03-29T04:46:27.312Z,71.05
2023-03-29T04:49:16.841Z,70.89
2023-03-29T04:51:50.026Z,71.01
2023-03-29T04:54:22.265Z,70.94
2023-03-29T04:57:04.482Z,70.64
2023-03-29T04:59:47.695Z,70.38
2023-03-29T05:02:49.329Z,70.79
2023-03-29T05:05:19.670Z,70.21
2023-03-29T05:07:50.834Z,70.05
2023-03-29T05:10:24.585Z,69.39
2023-03-29T05:13:01.510Z,69.08
2023-03-29T05:15:36.273Z,69.21
2023-03-29T05:18:05.194Z,69.07
2023-03-29T05:20:35.215Z,68.79
2023-03-29T05:23:03.836Z,68.40
2023-03-29T05:26:10.042Z,68.80
2023-03-29T05:28:44.159Z,68.34
2023-03-29T05:31:16.653Z,68.82
2023-03-29T05:33:50.720Z,68.75
2023-03-29T05:36:21.206Z,68.48
2023-03-29T05:38:54.263Z,68.14
2023-03-29T05:41:25.910Z,67.66
2023-03-29T05:44:33.101Z,67.49
2023-03-29T05:47:11.623Z,66.98
2023-03-29T05:49:41.058Z,66.10
2023-03-29T05:52:26.009Z,66.20
2023-03-29T05:54:58.327Z,66.12
2023-03-29T05:57:30.045Z,65.60
2023-03-29T05:59:58.871Z,65.54
2023-03-29T06:02:28.696Z,64.73
2023-03-29T06:04:57.547Z,64.71
2023-03-29T06:07:27.299Z,64.30
2023-03-29T06:10:22.204Z,63.92
2023-03-29T06:12:56.683Z,64.26
2023-03-29T06:15:26.853Z,64.30
2023-03-29T06:18:06.105Z,64.06
2023-03-29T06:20:36.861Z,64.06
2023-03-29T06:23:12.443Z,64.28
2023-03-29T06:25:41.072Z,64.21
2023-03-29T06:28:09.944Z,63.93
2023-03-29T06:30:38.525Z,64.05
2023-03-29T06:33:08.474Z,64.39
2023-03-29T06:36:07.000Z,63.84
2023-03-29T06:38:39.265Z,64.58
2023-03-29T06:41:23.806Z,64.45
2023-03-29T06:44:32.893Z,64.72
2023-03-29T06:47:09.774Z,64.99
2023-03-29T06:49:39.322Z,64.74
2023-03-29T06:52:26.709Z,65.63
2023-03-29T06:55:02.094Z,65.77
2023-03-29T06:57:32.172Z,66.08
2023-03-29T07:00:00.660Z,66.69
2023-03-29T07:02:53.220Z,68.50
2023-03-29T07:05:22.111Z,68.71
2023-03-29T07:08:00.435Z,68.31
2023-03-29T07:10:41.550Z,69.31
2023-03-29T07:13:33.856Z,69.06
2023-03-29T07:16:09.120Z,68.44
2023-03-29T07:19:05.502Z,68.46
2023-03-29T07:21:56.956Z,68.47
2023-03-29T07:24:42.032Z,68.91
2023-03-29T07:27:12.936Z,71.07
2023-03-29T07:29:41.555Z,72.66
2023-03-29T07:32:10.616Z,71.83
2023-03-29T07:34:48.442Z,72.66
2023-03-29T07:37:36.717Z,73.21
2023-03-29T07:40:11.594Z,71.59
2023-03-29T07:43:00.817Z,72.65
2023-03-29T07:45:32.706Z,72.28
2023-03-29T07:48:13.787Z,72.79
2023-03-29T07:50:55.147Z,72.83
2023-03-29T07:53:29.908Z,71.22
2023-03-29T07:56:00.572Z,71.27
2023-03-29T07:58:50.607Z,71.07
2023-03-29T08:01:21.797Z,70.28
2023-03-29T08:04:05.207Z,68.81
2023-03-29T08:06:54.303Z,69.92
2023-03-29T08:09:27.536Z,70.23
2023-03-29T08:12:58.110Z,70.47
2023-03-29T08:15:54.059Z,70.00
2023-03-29T08:18:34.613Z,70.05
2023-03-29T08:21:04.573Z,69.73
2023-03-29T08:23:33.689Z,69.44
2023-03-29T08:26:15.992Z,68.72
2023-03-29T08:28:46.981Z,69.53
2023-03-29T08:31:18.697Z,69.08
2023-03-29T08:34:42.732Z,68.97
2023-03-29T08:37:36.430Z,68.63
2023-03-29T08:40:06.802Z,68.97
2023-03-29T08:43:38.311Z,68.37
2023-03-29T08:46:20.290Z,69.31
2023-03-29T08:48:52.281Z,69.71
2023-03-29T08:51:28.208Z,69.40
2023-03-29T08:54:00.326Z,70.68
2023-03-29T08:56:37.872Z,72.01
2023-03-29T08:59:24.600Z,72.99
2023-03-29T09:01:58.395Z,73.12
2023-03-29T09:04:29.164Z,73.05
2023-03-29T09:07:16.398Z,73.21
2023-03-29T09:09:48.482Z,73.51
2023-03-29T09:12:35.811Z,73.98
2023-03-29T09:15:12.810Z,73.97
2023-03-29T09:18:01.998Z,73.42
2023-03-29T09:20:38.843Z,74.24
2023-03-29T09:23:17.271Z,74.50
2023-03-29T09:26:08.456Z,74.84
2023-03-29T09:29:02.885Z,75.48
2023-03-29T09:31:34.136Z,75.46
2023-03-29T09:34:07.358Z,76.21
2023-03-29T09:36:53.752Z,75.93
2023-03-29T09:39:23.266Z,77.24
2023-03-29T09:41:58.998Z,76.46
2023-03-29T09:44:31.756Z,77.23
2023-03-29T09:47:10.035Z,78.04
2023-03-29T09:49:43.909Z,78.52
2023-03-29T09:52:14.506Z,78.60
2023-03-29T09:54:51.827Z,78.61
2023-03-29T09:57:45.743Z,78.89
2023-03-29T10:00:17.474Z,80.00
2023-03-29T10:02:52.794Z,79.28
2023-03-29T10:05:27.980Z,79.87
2023-03-29T10:08:00.189Z,79.24
2023-03-29T10:10:31.986Z,78.13
2023-03-29T10:13:03.036Z,79.19
2023-03-29T10:15:32.233Z,78.85
2023-03-29T10:18:03.297Z,79.47
2023-03-29T10:20:37.052Z,78.12
2023-03-29T10:23:08.468Z,79.23
2023-03-29T10:25:42.541Z,78.39
2023-03-29T10:28:15.954Z,78.94
2023-03-29T10:30:54.786Z,79.75
2023-03-29T10:33:25.319Z,80.36
2023-03-29T10:35:59.063Z,79.92
2023-03-29T10:38:29.532Z,80.08
2023-03-29T10:41:06.982Z,80.58
2023-03-29T10:43:46.327Z,80.76
2023-03-29T10:46:22.245Z,81.33
2023-03-29T10:48:52.600Z,81.37
2023-03-29T10:51:27.976Z,81.74
2023-03-29T10:53:58.406Z,81.88
2023-03-29T10:56:43.773Z,81.39
2023-03-29T10:59:25.091Z,82.44
2023-03-29T11:02:04.863Z,82.94
2023-03-29T11:04:40.510Z,83.03
2023-03-29T11:07:24.108Z,83.42
2023-03-29T11:09:57.298Z,83.91
2023-03-29T11:12:29.498Z,83.05
2023-03-29T11:15:09.255Z,82.79
2023-03-29T11:17:51.199Z,83.76
2023-03-29T11:20:28.865Z,82.98
2023-03-29T11:23:08.828Z,82.98
2023-03-29T11:25:56.416Z,83.51
2023-03-29T11:28:33.610Z,83.60
2023-03-29T11:31:06.897Z,84.41
2023-03-29T11:33:45.341Z,84.37
2023-03-29T11:36:19.209Z,84.26
2023-03-29T11:38:57.253Z,84.61
2023-03-29T11:41:28.945Z,84.80
2023-03-29T11:44:01.297Z,84.80
2023-03-29T11:46:32.426Z,85.64
2023-03-29T11:49:05.679Z,85.92
2023-03-29T11:51:37.334Z,86.41
2023-03-29T11:54:12.570Z,86.73
2023-03-29T11:56:48.954Z,85.96
2023-03-29T11:59:23.621Z,85.83
2023-03-29T12:01:52.607Z,85.89
2023-03-29T12:04:25.064Z,85.81
2023-03-29T12:07:02.200Z,85.58
2023-03-29T12:09:36.703Z,85.54
2023-03-29T12:12:12.936Z,84.64
2023-03-29T12:14:51.112Z,84.46
2023-03-29T12:17:23.201Z,84.44
2023-03-29T12:19:57.340Z,84.71
2023-03-29T12:22:26.340Z,84.98
2023-03-29T12:24:58.847Z,85.56
2023-03-29T12:27:31.100Z,85.09
2023-03-29T12:30:25.500Z,85.42
2023-03-29T12:33:29.416Z,86.21
2023-03-29T12:36:57.637Z,85.49
2023-03-29T12:39:46.341Z,85.76
2023-03-29T12:42:54.149Z,86.30
2023-03-29T12:45:51.372Z,86.06
2023-03-29T12:48:22.469Z,86.71
2023-03-29T12:50:57.037Z,86.72
2023-03-29T12:53:27.528Z,86.48
2023-03-29T12:56:08.834Z,86.48
2023-03-29T12:59:19.504Z,86.43
2023-03-29T13:02:00.820Z,86.81
2023-03-29T13:04:39.656Z,86.50
2023-03-29T13:07:17.126Z,86.95
2023-03-29T13:09:54.032Z,86.70
2023-03-29T13:12:27.182Z,86.73
2023-03-29T13:15:00.751Z,85.77
2023-03-29T13:17:36.402Z,85.05
2023-03-29T13:20:14.684Z,85.30
2023-03-29T13:22:53.578Z,85.14
2023-03-29T13:25:37.109Z,85.77
2023-03-29T13:28:10.747Z,85.54
2023-03-29T13:30:50.780Z,85.87
2023-03-29T13:33:38.261Z,85.87
2023-03-29T13:36:10.281Z,85.34
2023-03-29T13:38:47.108Z,84.79
2023-03-29T13:41:30.059Z,84.88
2023-03-29T13:43:58.834Z,84.97
2023-03-29T13:46:41.537Z,85.36
2023-03-29T13:49:19.888Z,85.85
2023-03-29T13:52:05.529Z,86.40
2023-03-29T13:54:36.653Z,86.14
2023-03-29T13:57:11.486Z,86.48
2023-03-29T13:59:46.297Z,87.06
2023-03-29T14:02:18.892Z,87.56
2023-03-29T14:04:53.919Z,87.69
2023-03-29T14:07:26.733Z,88.39
2023-03-29T14:09:56.764Z,88.99
2023-03-29T14:12:25.976Z,89.29
2023-03-29T14:14:59.062Z,89.32
2023-03-29T14:17:36.874Z,90.11
2023-03-29T14:20:09.452Z,90.26
2023-03-29T14:22:40.131Z,89.73
2023-03-29T14:25:15.585Z,90.18
2023-03-29T14:27:44.666Z,90.24
2023-03-29T14:30:22.284Z,89.92
2023-03-29T14:32:53.542Z,89.61
2023-03-29T14:35:24.042Z,88.79
2023-03-29T14:37:53.013Z,88.96
2023-03-29T14:40:24.851Z,88.97
2023-03-29T14:42:56.780Z,88.49
2023-03-29T14:45:25.501Z,87.94
2023-03-29T14:47:55.799Z,87.71
2023-03-29T14:50:28.192Z,87.75
2023-03-29T14:52:58.022Z,87.82
2023-03-29T14:55:27.371Z,87.59
2023-03-29T14:57:57.059Z,87.85
2023-03-29T15:00:30.148Z,87.81
2023-03-29T15:03:02.026Z,88.02
2023-03-29T15:05:34.921Z,87.99
2023-03-29T15:08:04.672Z,88.44
2023-03-29T15:10:33.446Z,88.09
2023-03-29T15:13:03.351Z,87.99
2023-03-29T15:15:33.594Z,88.15
2023-03-29T15:18:04.000Z,88.01
2023-03-29T15:20:35.676Z,88.13
2023-03-29T15:23:09.606Z,88.36
2023-03-29T15:25:40.119Z,88.35
2023-03-29T15:28:26.218Z,88.36
2023-03-29T15:31:07.321Z,88.81
2023-03-29T15:33:39.021Z,88.53
2023-03-29T15:36:09.432Z,88.55
2023-03-29T15:38:44.099Z,88.32
2023-03-29T15:41:15.615Z,88.38
2023-03-29T15:43:44.471Z,88.92
2023-03-29T15:46:14.234Z,88.72
2023-03-29T15:48:44.284Z,88.74
2023-03-29T15:51:13.400Z,88.38
2023-03-29T15:53:42.713Z,88.70
2023-03-29T15:56:13.653Z,88.80
2023-03-29T15:58:42.138Z,88.70
2023-03-29T16:01:19.506Z,88.97
2023-03-29T16:03:51.432Z,88.90
2023-03-29T16:06:22.440Z,88.93
2023-03-29T16:08:51.296Z,89.11
2023-03-29T16:11:19.866Z,88.89
2023-03-29T16:13:48.542Z,88.86
2023-03-29T16:16:17.639Z,89.23
2023-03-29T16:18:46.166Z,89.24
2023-03-29T16:21:18.293Z,89.09
2023-03-29T16:23:47.703Z,89.04
2023-03-29T16:26:17.599Z,88.95
2023-03-29T16:28:46.380Z,89.07
2023-03-29T16:31:15.889Z,88.85
2023-03-29T16:33:44.695Z,89.05
2023-03-29T16:36:13.340Z,88.88
2023-03-29T16:38:43.237Z,88.45
2023-03-29T16:41:14.343Z,89.01
2023-03-29T16:43:42.786Z,88.84
2023-03-29T16:46:12.998Z,88.72
2023-03-29T16:48:41.589Z,88.46
2023-03-29T16:51:11.306Z,89.15
2023-03-29T16:53:40.638Z,89.32
2023-03-29T16:56:11.034Z,89.20
2023-03-29T16:58:40.132Z,89.04
2023-03-29T17:01:10.973Z,88.96
2023-03-29T17:03:40.116Z,89.05
2023-03-29T17:06:10.070Z,88.96
2023-03-29T17:08:39.241Z,88.96
2023-03-29T17:11:08.061Z,89.16
2023-03-29T17:13:38.948Z,88.83
2023-03-29T17:16:08.669Z,88.86
2023-03-29T17:18:39.088Z,89.24
2023-03-29T17:21:08.524Z,88.81
2023-03-29T17:23:37.239Z,88.61
2023-03-29T17:26:07.086Z,88.76
2023-03-29T17:28:35.987Z,88.48
2023-03-29T17:31:08.371Z,88.45
2023-03-29T17:33:37.837Z,88.05
2023-03-29T17:36:08.078Z,87.87
2023-03-29T17:38:38.146Z,88.17
2023-03-29T17:41:08.407Z,88.42
2023-03-29T17:43:36.969Z,88.05
2023-03-29T17:46:07.379Z,88.26
2023-03-29T17:48:35.864Z,88.66
2023-03-29T17:51:04.633Z,88.47
2023-03-29T17:53:33.400Z,88.56
2023-03-29T17:56:02.436Z,88.80
2023-03-29T17:58:31.447Z,89.09
2023-03-29T18:00:59.893Z,89.37
2023-03-29T18:03:29.958Z,89.39
2023-03-29T18:06:04.181Z,89.25
2023-03-29T18:09:10.239Z,89.88
2023-03-29T18:11:41.120Z,89.15
2023-03-29T18:14:09.677Z,89.13
2023-03-29T18:16:38.498Z,89.30
2023-03-29T18:19:08.315Z,88.80
2023-03-29T18:21:37.051Z,89.24
2023-03-29T18:24:06.162Z,88.74
2023-03-29T18:26:37.511Z,89.38
2023-03-29T18:29:31.823Z,89.12
2023-03-29T18:32:03.021Z,88.55
2023-03-29T18:34:33.576Z,88.85
2023-03-29T18:37:02.570Z,89.38
2023-03-29T18:39:32.093Z,89.39
2023-03-29T18:42:01.003Z,88.95
2023-03-29T18:44:30.881Z,89.07
2023-03-29T18:46:59.323Z,89.31
2023-03-29T18:49:28.128Z,89.05
2023-03-29T18:51:57.904Z,89.06
2023-03-29T18:54:26.612Z,89.57
2023-03-29T18:56:56.680Z,89.65
2023-03-29T18:59:27.326Z,89.45
2023-03-29T19:01:56.127Z,89.55
2023-03-29T19:04:26.926Z,89.72
2023-03-29T19:06:55.868Z,89.21
2023-03-29T19:09:27.269Z,89.39
2023-03-29T19:11:55.822Z,89.27
2023-03-29T19:14:25.572Z,89.28
2023-03-29T19:16:54.704Z,89.43
2023-03-29T19:19:26.365Z,89.56
2023-03-29T19:21:57.709Z,89.58
2023-03-29T19:24:30.275Z,89.30
2023-03-29T19:26:58.695Z,89.23
2023-03-29T19:29:27.585Z,89.57
2023-03-29T19:31:57.036Z,89.23
2023-03-29T19:34:26.887Z,89.13
2023-03-29T19:36:55.504Z,89.45
2023-03-29T19:39:25.285Z,89.05
2023-03-29T19:41:55.533Z,89.33
2023-03-29T19:44:24.772Z,88.85
2023-03-29T19:46:53.799Z,89.71
2023-03-29T19:49:22.470Z,89.60
2023-03-29T19:51:54.603Z,89.88
2023-03-29T19:54:23.722Z,89.88
2023-03-29T19:56:53.565Z,90.10
2023-03-29T19:59:23.672Z,89.63
2023-03-29T20:01:52.230Z,89.41
2023-03-29T20:04:22.917Z,90.08
2023-03-29T20:06:53.530Z,90.11
2023-03-29T20:09:22.385Z,90.30
2023-03-29T20:11:51.080Z,89.73
2023-03-29T20:14:19.516Z,89.95
2023-03-29T20:16:50.867Z,90.02
2023-03-29T20:19:24.149Z,90.29
2023-03-29T20:21:55.164Z,90.38
2023-03-29T20:24:23.685Z,90.43
2023-03-29T20:26:52.607Z,90.72
2023-03-29T20:29:21.055Z,90.63
2023-03-29T20:31:51.035Z,90.68
2023-03-29T20:34:19.760Z,89.75
2023-03-29T20:36:48.285Z,90.37
2023-03-29T20:39:18.869Z,90.02
2023-03-29T20:41:52.181Z,90.12
2023-03-29T20:44:22.388Z,90.27
2023-03-29T20:47:02.399Z,90.41
2023-03-29T20:49:37.262Z,90.08
2023-03-29T20:52:08.633Z,90.11
2023-03-29T20:54:38.960Z,90.27
2023-03-29T20:57:08.026Z,90.17
2023-03-29T20:59:38.123Z,90.51
2023-03-29T21:02:08.789Z,90.57
2023-03-29T21:04:37.390Z,89.87
2023-03-29T21:07:08.341Z,90.39
2023-03-29T21:09:42.478Z,90.56
2023-03-29T21:12:13.652Z,90.79
2023-03-29T21:14:42.815Z,90.71
2023-03-29T21:17:15.410Z,90.66
2023-03-29T21:19:43.954Z,90.79
2023-03-29T21:22:13.907Z,91.04
2023-03-29T21:24:42.655Z,90.28
2023-03-29T21:27:11.378Z,90.82
2023-03-29T21:29:40.191Z,90.64
2023-03-29T21:32:08.852Z,91.17
2023-03-29T21:34:38.949Z,91.16
2023-03-29T21:37:07.531Z,90.91
2023-03-29T21:39:36.152Z,90.65
2023-03-29T21:42:05.115Z,90.99
2023-03-29T21:44:34.522Z,90.90
2023-03-29T21:47:03.485Z,90.93
2023-03-29T21:49:32.201Z,90.43
2023-03-29T21:52:03.407Z,90.82
2023-03-29T21:54:33.831Z,90.65
2023-03-29T21:57:02.504Z,90.85
2023-03-29T21:59:31.118Z,90.56
2023-03-29T22:01:59.603Z,89.88
2023-03-29T22:04:36.619Z,89.79
2023-03-29T22:07:08.522Z,89.96
2023-03-29T22:09:37.079Z,89.59
2023-03-29T22:12:05.940Z,89.37
2023-03-29T22:14:35.834Z,89.57
2023-03-29T22:17:06.244Z,88.77
2023-03-29T22:19:39.137Z,89.66
2023-03-29T22:22:13.747Z,89.18
2023-03-29T22:24:42.728Z,88.68
2023-03-29T22:27:11.811Z,88.26
2023-03-29T22:29:40.563Z,88.09
2023-03-29T22:32:09.261Z,88.42
2023-03-29T22:34:37.733Z,88.75
2023-03-29T22:37:06.473Z,88.68
2023-03-29T22:39:37.675Z,88.52
2023-03-29T22:42:07.276Z,88.02
2023-03-29T22:44:36.138Z,88.50
2023-03-29T22:47:04.736Z,88.33
2023-03-29T22:49:34.985Z,88.23
2023-03-29T22:52:03.840Z,87.70
2023-03-29T22:54:32.594Z,87.95
2023-03-29T22:57:02.785Z,87.98
2023-03-29T22:59:31.265Z,87.99
2023-03-29T23:01:59.878Z,88.28
2023-03-29T23:04:30.980Z,88.44
2023-03-29T23:07:00.409Z,88.18
2023-03-29T23:09:29.055Z,88.31
2023-03-29T23:11:57.476Z,87.64
2023-03-29T23:14:27.353Z,88.00
2023-03-29T23:16:56.061Z,88.31
2023-03-29T23:19:24.522Z,87.93
2023-03-29T23:21:53.748Z,88.07
2023-03-29T23:24:22.971Z,87.90
2023-03-29T23:26:51.404Z,88.01
2023-03-29T23:29:20.301Z,87.58
2023-03-29T23:31:50.490Z,87.87
2023-03-29T23:34:22.930Z,88.01
2023-03-29T23:36:51.660Z,87.94
2023-03-29T23:39:20.061Z,87.78
2023-03-29T23:41:48.942Z,87.82
2023-03-29T23:44:17.541Z,87.97
2023-03-29T23:46:46.154Z,88.26
2023-03-29T23:49:17.337Z,87.64
2023-03-29T23:51:48.436Z,87.87
2023-03-29T23:54:17.454Z,88.15
2023-03-29T23:56:46.075Z,88.36
2023-03-29T23:59:14.688Z,87.96
